aviador You're here:

MMEP Decoded Metar

TEPIC in MEXICO
Report Time2017-09-21 20:50:00
UTC Time2017-09-21 21:08:38
Flight Rules mvfr MVFR
Wind260° at 10 kt
W.Decomp.*RWY 20: 6.2 kt HW 7.9 kt RCW
W.Rank260° ranks 23
Current wind is above 260° avg. (4.9)
Visibility8047 m
Phenomena:Rain
Clouds:Broken CB 015 Hf
Overcast 250 Hf
Ceiling1,500 ft
Temp22°C (ISA +13)
Dew Point22°C (100% RH)
QNH1013 hPa
Density Alt4,898 ft
Elevation3,025 ft
Report Wrong Elevation
Raw Report
METAR MMEP 212050Z 26010KT 5SM RA BKN015CB OVC250 22/22 A2990 RMK SLP109
57024 964 8/307 RAB40 VSBY 1/2SM S=

Extra information for MMEP:More info

Metar Taf Metar & Taf Last 4 Metars F.Rules Stats Wind Profile Meteogram Temp Stats Airport Information Weather charts Add Link Nearby VenuesMetar ALERT Operation Metar Decoded Social comments